Map

Track Data

SID SEASON NUMBER BASIN SUBBASIN NAME ISO_TIME NATURE LAT LON WMO_WIND WMO_PRES WMO_AGENCY TRACK_TYPE DIST2LAND LANDFALL IFLAG USA_AGENCY USA_ATCF_ID USA_LAT USA_LON USA_RECORD USA_STATUS USA_WIND USA_PRES USA_SSHS USA_R34_NE USA_R34_SE USA_R34_SW USA_R34_NW USA_R50_NE USA_R50_SE USA_R50_SW USA_R50_NW USA_R64_NE USA_R64_SE USA_R64_SW USA_R64_NW USA_POCI USA_ROCI USA_RMW USA_EYE TOKYO_LAT TOKYO_LON TOKYO_GRADE TOKYO_WIND TOKYO_PRES TOKYO_R50_DIR TOKYO_R50_LONG TOKYO_R50_SHORT TOKYO_R30_DIR TOKYO_R30_LONG TOKYO_R30_SHORT TOKYO_LAND CMA_LAT CMA_LON CMA_CAT CMA_WIND CMA_PRES HKO_LAT HKO_LON HKO_CAT HKO_WIND HKO_PRES NEWDELHI_LAT NEWDELHI_LON NEWDELHI_GRADE NEWDELHI_WIND NEWDELHI_PRES NEWDELHI_CI NEWDELHI_DP NEWDELHI_POCI REUNION_LAT REUNION_LON REUNION_TYPE REUNION_WIND REUNION_PRES REUNION_TNUM REUNION_CI REUNION_RMW REUNION_R34_NE REUNION_R34_SE REUNION_R34_SW REUNION_R34_NW REUNION_R50_NE REUNION_R50_SE REUNION_R50_SW REUNION_R50_NW REUNION_R64_NE REUNION_R64_SE REUNION_R64_SW REUNION_R64_NW BOM_LAT BOM_LON BOM_TYPE BOM_WIND BOM_PRES BOM_TNUM BOM_CI BOM_RMW BOM_R34_NE BOM_R34_SE BOM_R34_SW BOM_R34_NW BOM_R50_NE BOM_R50_SE BOM_R50_SW BOM_R50_NW BOM_R64_NE BOM_R64_SE BOM_R64_SW BOM_R64_NW BOM_ROCI BOM_POCI BOM_EYE BOM_POS_METHOD BOM_PRES_METHOD NADI_LAT NADI_LON NADI_CAT NADI_WIND NADI_PRES WELLINGTON_LAT WELLINGTON_LON WELLINGTON_WIND WELLINGTON_PRES DS824_LAT DS824_LON DS824_STAGE DS824_WIND DS824_PRES TD9636_LAT TD9636_LON TD9636_STAGE TD9636_WIND TD9636_PRES TD9635_LAT TD9635_LON TD9635_WIND TD9635_PRES TD9635_ROCI NEUMANN_LAT NEUMANN_LON NEUMANN_CLASS NEUMANN_WIND NEUMANN_PRES MLC_LAT MLC_LON MLC_CLASS MLC_WIND MLC_PRES USA_GUST BOM_GUST BOM_GUST_PER REUNION_GUST REUNION_GUST_PER USA_SEAHGT USA_SEARAD_NE USA_SEARAD_SE USA_SEARAD_SW USA_SEARAD_NW STORM_SPEED STORM_DIR
1929260N15136 1929 59 WP MM NOT_NAMED 1929-09-17 10:00:00 NR 15.0000 136.000 main 1177 1167 __________O___ -1 15.0000 136.000 7 1 281
1929260N15136 1929 59 WP MM NOT_NAMED 1929-09-17 12:00:00 NR 15.0076 135.950 main 1167 1156 __________P___ -1 15.0076 135.950 7 2 284
1929260N15136 1929 59 WP MM NOT_NAMED 1929-09-17 15:00:00 NR 15.0349 135.850 main 1156 1149 __________P___ -1 15.0349 135.850 7 3 290
1929260N15136 1929 59 WP MM NOT_NAMED 1929-09-17 18:00:00 NR 15.1031 135.686 main 1149 1121 __________P___ -1 15.1031 135.686 7 5 296
1929260N15136 1929 59 WP MM NOT_NAMED 1929-09-17 21:00:00 NR 15.2368 135.419 main 1121 1114 __________P___ -1 15.2368 135.419 7 6 298
1929260N15136 1929 59 WP MM NOT_NAMED 1929-09-17 22:00:00 NR 15.3000 135.300 main 1114 1086 __________O___ -1 15.3000 135.300 7 9 299
1929260N15136 1929 59 WP MM NOT_NAMED 1929-09-18 00:00:00 NR 15.4573 135.014 main 1090 1047 __________P___ -1 15.4573 135.014 7 11 300
1929260N15136 1929 59 WP MM NOT_NAMED 1929-09-18 03:00:00 NR 15.7560 134.483 main 1051 1005 __________P___ -1 15.7560 134.483 7 13 300
1929260N15136 1929 59 WP MM NOT_NAMED 1929-09-18 06:00:00 NR 16.1049 133.870 main 1005 959 __________P___ -1 16.1049 133.870 7 14 301
1929260N15136 1929 59 WP MM NOT_NAMED 1929-09-18 09:00:00 NR 16.4761 133.218 main 959 946 __________P___ -1 16.4761 133.218 7 15 301
1929260N15136 1929 59 WP MM NOT_NAMED 1929-09-18 10:00:00 NR 16.6000 133.000 main 946 921 __________O___ -1 16.6000 133.000 7 14 300
1929260N15136 1929 59 WP MM NOT_NAMED 1929-09-18 12:00:00 NR 16.8193 132.602 main 921 888 __________P___ -1 16.8193 132.602 7 13 300
1929260N15136 1929 59 WP MM NOT_NAMED 1929-09-18 15:00:00 NR 17.1547 131.993 main 894 850 __________P___ -1 17.1547 131.993 7 14 300
1929260N15136 1929 59 WP MM NOT_NAMED 1929-09-18 18:00:00 NR 17.5033 131.366 main 850 808 __________P___ -1 17.5033 131.366 7 14 301
1929260N15136 1929 59 WP MM NOT_NAMED 1929-09-18 21:00:00 NR 17.8717 130.720 main 808 797 __________P___ -1 17.8717 130.720 7 14 301
1929260N15136 1929 59 WP MM NOT_NAMED 1929-09-18 22:00:00 NR 18.0000 130.500 main 797 774 __________O___ -1 18.0000 130.500 7 15 300
1929260N15136 1929 59 WP MM NOT_NAMED 1929-09-19 00:00:00 NR 18.2508 130.024 main 774 738 __________P___ -1 18.2508 130.024 7 16 299
1929260N15136 1929 59 WP MM NOT_NAMED 1929-09-19 03:00:00 NR 18.6456 129.291 main 738 666 __________P___ -1 18.6456 129.291 7 16 301
1929260N15136 1929 59 WP MM NOT_NAMED 1929-09-19 06:00:00 NR 19.0705 128.570 main 667 601 __________P___ -1 19.0705 128.570 7 16 304
1929260N15136 1929 59 WP MM NOT_NAMED 1929-09-19 09:00:00 NR 19.5348 127.903 main 601 585 __________P___ -1 19.5348 127.903 7 16 308
1929260N15136 1929 59 WP MM NOT_NAMED 1929-09-19 10:00:00 NR 19.7000 127.700 main 585 554 __________O___ -1 19.7000 127.700 7 15 313
1929260N15136 1929 59 WP MM NOT_NAMED 1929-09-19 12:00:00 NR 20.0564 127.301 main 558 527 __________P___ -1 20.0564 127.301 7 15 317
1929260N15136 1929 59 WP MM NOT_NAMED 1929-09-19 15:00:00 NR 20.6297 126.766 main 531 521 __________P___ -1 20.6297 126.766 7 15 322
1929260N15136 1929 59 WP MM NOT_NAMED 1929-09-19 18:00:00 NR 21.2240 126.321 main 522 494 __________P___ -1 21.2240 126.321 7 14 328
1929260N15136 1929 59 WP MM NOT_NAMED 1929-09-19 21:00:00 NR 21.8109 125.984 main 494 478 __________P___ -1 21.8109 125.984 7 13 333
1929260N15136 1929 59 WP MM NOT_NAMED 1929-09-19 22:00:00 NR 22.0000 125.900 main 478 447 __________O___ -1 22.0000 125.900 3 12 338
1929260N15136 1929 59 WP MM NOT_NAMED 1929-09-20 00:00:00 NR 22.3576 125.748 main 447 416 __________P___ -1 22.3576 125.748 3 11 344
1929260N15136 1929 59 WP MM NOT_NAMED 1929-09-20 03:00:00 NR 22.8759 125.622 main 416 395 __________P___ -1 22.8759 125.622 3 10 352
1929260N15136 1929 59 WP MM NOT_NAMED 1929-09-20 06:00:00 NR 23.3724 125.600 main 395 383 __________P___ -1 23.3724 125.600 3 10 2
1929260N15136 1929 59 WP MM NOT_NAMED 1929-09-20 09:00:00 NR 23.8468 125.663 main 393 389 __________P___ -1 23.8468 125.663 3 10 8
1929260N15136 1929 59 WP MM NOT_NAMED 1929-09-20 10:00:00 NR 24.0000 125.700 main 389 384 __________O___ -1 24.0000 125.700 4 9 15
1929260N15136 1929 59 WP MM NOT_NAMED 1929-09-20 12:00:00 NR 24.2990 125.792 main 391 389 __________P___ -1 24.2990 125.792 4 9 19
1929260N15136 1929 59 WP MM NOT_NAMED 1929-09-20 15:00:00 NR 24.7322 125.971 main 404 403 __________P___ -1 24.7322 125.971 4 9 23
1929260N15136 1929 59 WP MM NOT_NAMED 1929-09-20 18:00:00 NR 25.1519 126.185 main 423 423 __________P___ -1 25.1519 126.185 4 9 26
1929260N15136 1929 59 WP MM NOT_NAMED 1929-09-20 21:00:00 NR 25.5636 126.420 main 447 447 __________P___ -1 25.5636 126.420 4 9 28
1929260N15136 1929 59 WP MM NOT_NAMED 1929-09-20 22:00:00 NR 25.7000 126.500 main 458 __________O___ -1 25.7000 126.500 4 9 27

Digital Typhoon Data and Search

About IBTrACS Database

This database is a web-friendly format of International Best Track Archive for Climate Stewardship (IBTrACS), a global best track data archive curated by NOAA dating back to 1842.

Updated: 2021-10-25